Time;durP1;ratioP1;P1;durP2;ratioP2;P2;SDS_P1;SDS_P2;PMS_P1;PMS_P2;Temp;Humidity;BMP_temperature;BMP_pressure;BME280_temperature;BME280_humidity;BME280_pressure;Samples;Min_cycle;Max_cycle;Signal;HPM_P1;HPM_P2
2023/03/24 00:00:31;;;;;;;6.30;3.93;;;;;;;11.27;94.49;99999.81;5033298;28;20503;-75
2023/03/24 00:03:16;;;;;;;5.60;3.70;;;;;;;11.26;93.90;99990.03;5020453;28;20522;-75
2023/03/24 00:06:00;;;;;;;4.57;3.60;;;;;;;11.21;94.33;99979.88;5040128;28;20468;-76
2023/03/24 00:08:46;;;;;;;3.43;3.13;;;;;;;11.31;93.37;99990.16;5024216;28;20487;-75
2023/03/24 00:11:33;;;;;;;3.27;3.07;;;;;;;11.38;92.56;99981.94;5036027;28;20555;-76
2023/03/24 00:14:16;;;;;;;3.50;3.20;;;;;;;11.45;92.07;99975.38;5028347;28;20446;-76
2023/03/24 00:16:48;;;;;;;6.30;3.50;;;;;;;11.30;93.00;99972.25;5018965;28;20845;-75
2023/03/24 00:19:37;;;;;;;3.80;3.10;;;;;;;11.29;92.68;99970.59;5036474;28;20505;-76
2023/03/24 00:22:20;;;;;;;3.70;3.00;;;;;;;11.33;92.28;99969.06;5021569;28;20487;-75
2023/03/24 00:24:56;;;;;;;4.87;4.40;;;;;;;11.26;93.56;99965.66;5043645;28;20478;-75
2023/03/24 00:27:36;;;;;;;4.17;3.27;;;;;;;11.26;93.03;99958.34;5034435;28;20455;-75
2023/03/24 00:30:15;;;;;;;3.47;3.17;;;;;;;11.35;92.13;99953.44;5026408;28;21003;-76
2023/03/24 00:32:49;;;;;;;4.07;3.43;;;;;;;11.29;92.28;99957.06;5021396;28;20866;-75
2023/03/24 00:35:25;;;;;;;3.90;3.60;;;;;;;11.26;92.50;99954.81;5032009;28;20421;-77
2023/03/24 00:38:00;;;;;;;4.20;3.03;;;;;;;11.33;91.82;99952.81;5035955;28;20450;-77
2023/03/24 00:40:52;;;;;;;6.53;3.30;;;;;;;11.47;90.96;99950.78;5033296;28;20825;-76
2023/03/24 00:43:24;;;;;;;4.63;3.30;;;;;;;11.42;91.40;99943.34;5041172;28;20522;-78
2023/03/24 00:46:03;;;;;;;3.57;2.97;;;;;;;11.38;91.03;99952.97;5025173;28;20828;-77
2023/03/24 00:48:40;;;;;;;4.50;3.00;;;;;;;11.43;91.13;99952.28;5040326;28;20480;-76
2023/03/24 00:51:31;;;;;;;5.63;3.50;;;;;;;11.45;90.89;99942.88;5029495;28;20435;-77
2023/03/24 00:54:12;;;;;;;3.63;2.93;;;;;;;11.27;91.57;99940.22;5019551;28;20410;-76
2023/03/24 00:56:48;;;;;;;3.60;3.30;;;;;;;11.36;91.14;99936.13;5032330;28;20785;-76
2023/03/24 00:59:20;;;;;;;5.77;3.80;;;;;;;11.21;92.01;99938.44;5018561;28;20468;-77
2023/03/24 01:01:52;;;;;;;3.87;2.93;;;;;;;11.31;92.01;99933.28;5023290;28;20430;-77
2023/03/24 01:04:25;;;;;;;5.43;3.40;;;;;;;11.36;90.86;99933.41;5033055;28;20411;-77
2023/03/24 01:07:04;;;;;;;3.53;3.10;;;;;;;11.48;90.44;99920.72;5032034;28;20427;-77
2023/03/24 01:09:36;;;;;;;4.07;3.43;;;;;;;11.37;90.97;99929.66;5036422;28;20443;-75
2023/03/24 01:12:14;;;;;;;8.53;3.03;;;;;;;11.34;90.98;99914.69;5023283;28;20867;-75
2023/03/24 01:14:58;;;;;;;3.80;3.20;;;;;;;11.34;90.79;99913.84;5032919;28;20420;-75
2023/03/24 01:17:36;;;;;;;4.10;2.80;;;;;;;11.47;90.60;99910.97;5051715;28;20464;-76
2023/03/24 01:20:11;;;;;;;4.40;2.70;;;;;;;11.42;90.81;99899.19;5042609;28;20428;-76
2023/03/24 01:22:50;;;;;;;3.70;2.77;;;;;;;11.53;90.27;99899.19;5031215;28;20783;-77
2023/03/24 01:25:28;;;;;;;4.60;3.30;;;;;;;11.41;90.60;99897.53;5015785;28;20455;-78
2023/03/24 01:28:12;;;;;;;3.30;3.00;;;;;;;11.34;91.08;99884.06;5022573;28;20830;-77
2023/03/24 01:30:48;;;;;;;3.90;3.03;;;;;;;11.43;90.66;99885.38;5035191;28;20476;-78
2023/03/24 01:33:21;;;;;;;3.60;2.93;;;;;;;11.47;90.29;99880.34;5034237;28;20435;-78
2023/03/24 01:36:00;;;;;;;4.00;2.60;;;;;;;11.37;90.50;99875.50;5019079;28;20470;-78
2023/03/24 01:38:45;;;;;;;4.40;3.40;;;;;;;11.38;91.31;99868.16;5034429;28;20475;-77
2023/03/24 01:41:22;;;;;;;6.90;3.93;;;;;;;11.46;90.72;99863.25;5037306;28;20420;-77
2023/03/24 01:43:56;;;;;;;3.10;2.70;;;;;;;11.48;90.39;99855.72;5032735;28;20967;-77
2023/03/24 01:46:35;;;;;;;3.30;3.00;;;;;;;11.47;90.52;99843.25;5045985;28;20407;-77
2023/03/24 01:49:13;;;;;;;3.17;2.83;;;;;;;11.43;91.09;99842.03;5053861;28;20451;-77
2023/03/24 01:51:56;;;;;;;4.07;3.10;;;;;;;11.29;91.68;99821.63;5058732;28;20445;-76
2023/03/24 01:54:38;;;;;;;4.57;3.30;;;;;;;11.33;91.78;99822.81;5033337;28;20467;-77
2023/03/24 01:57:16;;;;;;;2.93;2.60;;;;;;;11.51;91.02;99828.16;5030614;28;20544;-77
2023/03/24 01:59:52;;;;;;;6.57;3.70;;;;;;;11.49;90.21;99835.69;5000798;28;20431;-76
2023/03/24 02:02:57;;;;;;;3.67;2.77;;;;;;;11.44;91.20;99824.72;5035530;28;20514;-76
2023/03/24 02:05:36;;;;;;;3.23;2.93;;;;;;;11.35;91.29;99831.56;5039355;28;20453;-76
2023/03/24 02:08:16;;;;;;;2.63;2.43;;;;;;;11.24;91.95;99825.03;5024276;28;20533;-76
2023/03/24 02:10:49;;;;;;;5.07;3.67;;;;;;;11.34;91.71;99811.75;5034433;28;20463;-77
2023/03/24 02:13:28;;;;;;;3.83;2.40;;;;;;;11.15;92.52;99802.06;5021419;28;20451;-77
2023/03/24 02:16:37;;;;;;;3.53;3.20;;;;;;;11.27;92.80;99794.81;5024639;28;20485;-77
2023/03/24 02:19:46;;;;;;;3.20;2.90;;;;;;;11.36;91.91;99797.16;5020639;28;20473;-77
2023/03/24 02:22:46;;;;;;;3.60;3.10;;;;;;;11.30;92.03;99794.34;5031933;28;20452;-77
2023/03/24 02:26:11;;;;;;;5.37;3.37;;;;;;;11.40;91.54;99787.50;5011823;28;20460;-77
2023/03/24 02:29:26;;;;;;;2.70;2.37;;;;;;;11.54;91.13;99788.94;5035561;28;20480;-77
2023/03/24 02:32:47;;;;;;;7.10;3.17;;;;;;;11.36;91.70;99779.03;5033284;28;20470;-77
2023/03/24 02:36:02;;;;;;;3.60;3.00;;;;;;;11.53;90.89;99761.00;5024148;28;20449;-76
2023/03/24 02:39:04;;;;;;;12.20;3.17;;;;;;;11.63;90.33;99761.25;5027724;28;20848;-77
2023/03/24 02:41:46;;;;;;;4.33;3.00;;;;;;;11.74;89.46;99763.16;5015232;28;21037;-75
2023/03/24 02:44:27;;;;;;;3.50;3.20;;;;;;;11.64;90.22;99757.47;5030441;28;20782;-77
2023/03/24 02:47:09;;;;;;;8.40;3.30;;;;;;;11.79;88.98;99753.50;5039780;28;20439;-78
2023/03/24 02:49:49;;;;;;;3.10;2.90;;;;;;;11.80;88.85;99757.84;5035409;28;20476;-77
2023/03/24 02:52:31;;;;;;;4.23;2.77;;;;;;;11.64;89.92;99754.78;5030551;28;20473;-77
2023/03/24 02:55:08;;;;;;;4.20;2.87;;;;;;;11.79;89.94;99767.03;5022737;28;21226;-77
2023/03/24 02:57:46;;;;;;;3.60;3.00;;;;;;;11.69;91.54;99765.72;5014774;28;20430;-77
2023/03/24 03:00:49;;;;;;;4.20;3.23;;;;;;;11.56;92.60;99763.28;4997113;28;21090;-77
2023/03/24 03:03:54;;;;;;;3.20;2.90;;;;;;;11.51;94.24;99757.72;5006999;28;20415;-77
2023/03/24 03:06:31;;;;;;;2.90;2.60;;;;;;;11.43;94.85;99749.94;5045104;28;20467;-77
2023/03/24 03:09:09;;;;;;;5.13;3.80;;;;;;;11.34;96.06;99741.34;5031647;28;20446;-77
2023/03/24 03:11:46;;;;;;;7.27;3.90;;;;;;;11.34;96.37;99741.34;5023745;28;20449;-76
2023/03/24 03:14:29;;;;;;;3.53;2.80;;;;;;;11.38;96.49;99741.69;5030129;28;20433;-76
2023/03/24 03:17:08;;;;;;;6.33;4.93;;;;;;;11.37;96.62;99731.94;5012221;28;20426;-77
2023/03/24 03:19:49;;;;;;;4.70;4.10;;;;;;;11.41;96.57;99733.09;5023563;28;20937;-77
2023/03/24 03:22:28;;;;;;;7.00;3.50;;;;;;;11.49;96.95;99732.75;5022217;28;20435;-76
2023/03/24 03:25:08;;;;;;;4.50;3.27;;;;;;;11.48;96.45;99731.09;5017405;28;20451;-77
2023/03/24 03:27:47;;;;;;;2.80;2.47;;;;;;;11.44;96.98;99721.78;5033264;28;21046;-76
2023/03/24 03:30:25;;;;;;;4.80;2.90;;;;;;;11.51;96.38;99719.81;5030819;28;20469;-76
2023/03/24 03:33:04;;;;;;;2.60;2.40;;;;;;;11.47;97.42;99718.63;5044926;28;20464;-76
2023/03/24 03:35:40;;;;;;;2.70;2.47;;;;;;;11.46;97.26;99710.72;5038162;28;20853;-75
2023/03/24 03:38:23;;;;;;;4.67;3.90;;;;;;;11.35;98.30;99704.25;5027043;28;20510;-76
2023/03/24 03:40:59;;;;;;;4.47;3.00;;;;;;;11.38;98.80;99698.34;5020554;28;20910;-76
2023/03/24 03:43:36;;;;;;;4.33;3.40;;;;;;;11.38;98.92;99692.94;5029614;28;20438;-76
2023/03/24 03:46:20;;;;;;;4.23;3.57;;;;;;;11.41;98.93;99688.94;5028434;28;20461;-76
2023/03/24 03:48:52;;;;;;;4.63;3.53;;;;;;;11.32;99.90;99688.50;5011867;28;20856;-77
2023/03/24 03:51:29;;;;;;;4.80;3.77;;;;;;;11.40;99.70;99684.59;5000739;28;20469;-77
2023/03/24 03:54:09;;;;;;;4.00;3.67;;;;;;;11.42;99.94;99682.47;5016636;28;20948;-77
2023/03/24 03:56:48;;;;;;;4.17;3.80;;;;;;;11.36;100.00;99686.94;5011899;28;20468;-77
2023/03/24 03:59:35;;;;;;;5.10;3.43;;;;;;;11.51;100.00;99686.47;5027758;28;20521;-77
2023/03/24 04:02:32;;;;;;;4.60;2.70;;;;;;;11.38;100.00;99684.81;5019250;28;20466;-77
2023/03/24 04:05:35;;;;;;;3.50;3.10;;;;;;;11.32;100.00;99673.06;5037314;28;20451;-76
2023/03/24 04:08:30;;;;;;;3.70;3.37;;;;;;;11.31;100.00;99676.00;5015397;28;20494;-76
2023/03/24 04:11:45;;;;;;;3.93;2.90;;;;;;;11.34;100.00;99659.25;5028518;28;20555;-76
2023/03/24 04:15:07;;;;;;;4.20;3.80;;;;;;;11.42;100.00;99661.63;5011963;28;20553;-76
2023/03/24 04:18:19;;;;;;;3.53;3.20;;;;;;;11.42;100.00;99650.81;5003597;28;20434;-76
2023/03/24 04:21:32;;;;;;;5.87;4.37;;;;;;;11.39;100.00;99651.25;5024248;28;20502;-78
2023/03/24 04:24:27;;;;;;;5.70;3.20;;;;;;;11.50;100.00;99636.06;5031653;28;20487;-77
2023/03/24 04:27:15;;;;;;;5.33;3.80;;;;;;;11.50;100.00;99642.28;5004620;28;20434;-77
2023/03/24 04:30:13;;;;;;;6.13;4.20;;;;;;;11.41;100.00;99642.91;5025250;28;20415;-77
2023/03/24 04:32:57;;;;;;;5.43;3.77;;;;;;;11.55;100.00;99634.28;5016203;28;20451;-77
2023/03/24 04:35:48;;;;;;;6.90;4.43;;;;;;;11.59;100.00;99632.72;5021845;28;20455;-77
2023/03/24 04:38:41;;;;;;;3.97;3.57;;;;;;;11.69;100.00;99615.84;5011389;28;20454;-76
2023/03/24 04:41:36;;;;;;;5.30;4.00;;;;;;;11.72;99.79;99613.53;5019842;28;20564;-77
2023/03/24 04:44:23;;;;;;;4.83;4.43;;;;;;;11.73;99.61;99617.88;5014772;28;20793;-76
2023/03/24 04:47:38;;;;;;;7.07;4.83;;;;;;;11.75;99.93;99613.06;5014397;28;20452;-76
2023/03/24 04:50:54;;;;;;;5.13;4.63;;;;;;;11.75;100.00;99604.09;5031037;28;20443;-77
2023/03/24 04:53:56;;;;;;;5.43;4.73;;;;;;;11.75;99.69;99618.47;5028300;28;20871;-77
2023/03/24 04:56:40;;;;;;;4.87;4.40;;;;;;;11.71;100.00;99598.28;5018919;28;20449;-78
2023/03/24 04:59:24;;;;;;;4.87;4.30;;;;;;;11.82;99.71;99595.81;5031241;28;20446;-76
2023/03/24 05:01:59;;;;;;;5.10;4.60;;;;;;;11.93;98.83;99608.50;5039694;28;20428;-76
2023/03/24 05:04:38;;;;;;;4.80;4.30;;;;;;;11.91;98.75;99599.81;5034939;28;20459;-76
2023/03/24 05:07:20;;;;;;;6.53;5.00;;;;;;;11.91;98.67;99599.81;5027106;28;20487;-76
2023/03/24 05:10:01;;;;;;;6.10;4.43;;;;;;;11.88;98.67;99594.84;5031076;28;20426;-77
2023/03/24 05:12:37;;;;;;;10.83;5.40;;;;;;;11.96;97.86;99594.44;5031823;28;20454;-76
2023/03/24 05:15:42;;;;;;;6.30;5.63;;;;;;;12.02;97.87;99585.34;5020046;28;20436;-77
2023/03/24 05:18:28;;;;;;;5.87;4.50;;;;;;;12.08;97.31;99590.63;5036039;28;20443;-76
2023/03/24 05:21:02;;;;;;;5.80;3.93;;;;;;;12.18;96.08;99590.00;5019327;28;20439;-77
2023/03/24 05:23:48;;;;;;;4.87;4.47;;;;;;;12.20;95.93;99588.66;5031249;28;20445;-76
2023/03/24 05:26:25;;;;;;;6.20;5.70;;;;;;;12.26;95.73;99589.59;5015225;28;20437;-77
2023/03/24 05:29:13;;;;;;;6.77;4.70;;;;;;;12.24;95.87;99582.78;5030766;28;20475;-77
2023/03/24 05:32:08;;;;;;;8.30;6.20;;;;;;;12.25;95.88;99582.50;5016507;28;20544;-77
2023/03/24 05:35:14;;;;;;;5.77;4.17;;;;;;;12.32;95.55;99585.91;5018235;28;20437;-78
2023/03/24 05:37:47;;;;;;;6.70;4.53;;;;;;;12.40;95.21;99588.19;5032351;28;20487;-77
2023/03/24 05:40:26;;;;;;;9.30;5.10;;;;;;;12.37;95.52;99586.00;5013567;28;20426;-78
2023/03/24 05:43:20;;;;;;;5.20;4.53;;;;;;;12.37;95.27;99586.00;5016635;28;20938;-78
2023/03/24 05:46:13;;;;;;;5.57;5.07;;;;;;;12.37;95.24;99588.72;5019548;28;20427;-77
2023/03/24 05:48:51;;;;;;;7.63;4.00;;;;;;;12.30;95.97;99582.59;5024134;28;20860;-77
2023/03/24 05:51:23;;;;;;;5.03;4.63;;;;;;;12.43;95.18;99576.88;5029354;28;20444;-77
2023/03/24 05:57:21;;;;;;;11.57;5.57;;;;;;;12.33;95.98;99565.84;5023796;28;20457;-76
2023/03/24 06:00:23;;;;;;;7.37;4.53;;;;;;;12.44;95.50;99573.06;5028815;28;20441;-76
2023/03/24 06:03:04;;;;;;;6.03;4.53;;;;;;;12.48;95.06;99574.25;5042608;28;20419;-78
2023/03/24 06:05:54;;;;;;;5.40;4.80;;;;;;;12.51;95.25;99568.31;5039055;28;20423;-77
2023/03/24 06:08:27;;;;;;;5.03;4.07;;;;;;;12.41;95.34;99565.44;5037792;28;20473;-78
2023/03/24 06:11:06;;;;;;;7.90;4.70;;;;;;;12.50;95.20;99561.25;5013612;28;20451;-77
2023/03/24 06:13:57;;;;;;;6.37;3.97;;;;;;;12.49;94.89;99562.31;5038446;28;20456;-77
2023/03/24 06:16:52;;;;;;;9.47;3.87;;;;;;;12.56;95.05;99549.41;5043002;28;20494;-77
2023/03/24 06:19:39;;;;;;;4.67;4.27;;;;;;;12.61;94.45;99554.09;5017830;28;20514;-77
2023/03/24 06:23:12;;;;;;;5.07;4.30;;;;;;;12.55;95.14;99546.94;5040713;28;20423;-76
2023/03/24 06:26:24;;;;;;;4.80;4.20;;;;;;;12.62;94.85;99534.84;5000577;28;20449;-77
2023/03/24 06:29:02;;;;;;;5.63;4.73;;;;;;;12.75;93.85;99541.00;5020831;28;20476;-77
2023/03/24 06:31:38;;;;;;;6.37;5.20;;;;;;;12.86;93.53;99535.47;5018919;28;20483;-77
2023/03/24 06:34:14;;;;;;;6.70;4.10;;;;;;;12.99;92.95;99534.28;5019657;28;20502;-77
2023/03/24 06:36:57;;;;;;;5.27;4.40;;;;;;;13.02;92.53;99531.09;5037902;28;20550;-77
2023/03/24 06:39:31;;;;;;;4.43;3.60;;;;;;;13.01;92.18;99532.97;5023579;28;20863;-77
2023/03/24 06:42:11;;;;;;;6.43;4.03;;;;;;;12.98;93.30;99530.75;5004964;28;20477;-77
2023/03/24 06:44:45;;;;;;;4.47;3.90;;;;;;;12.98;94.00;99543.50;5019752;28;21044;-78
2023/03/24 06:47:17;;;;;;;6.60;4.20;;;;;;;12.89;94.70;99542.28;5048773;28;20455;-77
2023/03/24 06:49:52;;;;;;;5.83;4.47;;;;;;;12.94;95.14;99537.75;5015016;28;20443;-77
2023/03/24 06:52:26;;;;;;;5.07;4.37;;;;;;;12.86;95.62;99526.50;5035098;28;20442;-76
2023/03/24 06:54:59;;;;;;;6.63;4.50;;;;;;;12.87;95.93;99528.97;5033085;28;20448;-77
2023/03/24 06:57:33;;;;;;;6.60;5.00;;;;;;;12.98;95.03;99528.03;5027505;28;20428;-76
2023/03/24 07:00:29;;;;;;;4.50;4.10;;;;;;;13.03;94.61;99521.84;5018729;28;20611;-78
2023/03/24 07:03:22;;;;;;;6.10;4.50;;;;;;;13.07;94.19;99517.56;5019249;28;20437;-77
2023/03/24 07:06:15;;;;;;;6.37;5.20;;;;;;;13.05;94.84;99506.13;5004793;28;20411;-74
2023/03/24 07:08:55;;;;;;;7.70;4.50;;;;;;;13.18;93.54;99505.78;5029965;28;20493;-76
2023/03/24 07:11:30;;;;;;;7.67;4.33;;;;;;;13.22;93.41;99504.19;5018186;28;20416;-77
2023/03/24 07:14:08;;;;;;;5.77;4.93;;;;;;;13.36;92.62;99508.19;5035706;28;20455;-77
2023/03/24 07:16:43;;;;;;;7.57;5.20;;;;;;;13.39;92.33;99499.53;5016725;28;20473;-77
2023/03/24 07:19:53;;;;;;;5.63;3.93;;;;;;;13.57;91.79;99495.66;5011079;28;20451;-77
2023/03/24 07:22:42;;;;;;;6.90;4.50;;;;;;;13.73;90.36;99480.31;5009496;28;20482;-77
2023/03/24 07:25:43;;;;;;;5.63;4.87;;;;;;;14.00;89.63;99481.13;5019137;28;20622;-77
2023/03/24 07:28:21;;;;;;;5.00;4.00;;;;;;;14.13;87.80;99488.03;5032738;28;21003;-76
2023/03/24 07:30:55;;;;;;;5.20;4.47;;;;;;;14.13;87.65;99488.03;5023421;28;20878;-77
2023/03/24 07:33:29;;;;;;;7.40;4.93;;;;;;;14.45;86.24;99475.25;5017326;28;20497;-77
2023/03/24 07:36:02;;;;;;;6.67;4.50;;;;;;;14.55;84.45;99480.78;5021307;28;20491;-77
2023/03/24 07:38:38;;;;;;;6.43;3.97;;;;;;;14.81;83.53;99478.22;5037198;28;20451;-76
2023/03/24 07:41:13;;;;;;;4.03;3.60;;;;;;;14.71;82.76;99479.78;5030616;28;20525;-77
2023/03/24 07:43:53;;;;;;;4.20;3.77;;;;;;;14.80;81.60;99469.22;5022365;28;20441;-76
2023/03/24 07:46:34;;;;;;;5.30;4.30;;;;;;;14.67;82.63;99478.66;5014038;28;20487;-77
2023/03/24 07:49:07;;;;;;;5.03;4.53;;;;;;;14.74;81.16;99467.53;5021639;28;20453;-77
2023/03/24 07:52:05;;;;;;;4.27;3.43;;;;;;;14.44;82.57;99470.88;5010167;28;20465;-78
2023/03/24 07:54:40;;;;;;;4.10;3.70;;;;;;;14.39;83.88;99476.28;5045566;28;20476;-77
2023/03/24 07:57:18;;;;;;;5.07;4.07;;;;;;;14.23;85.29;99480.75;5032484;28;20474;-76
2023/03/24 07:59:51;;;;;;;4.60;3.57;;;;;;;14.06;87.01;99488.25;5035413;28;20416;-76
2023/03/24 08:03:17;;;;;;;7.67;4.63;;;;;;;13.89;88.93;99479.41;5012697;28;20553;-77
2023/03/24 08:06:13;;;;;;;4.87;3.70;;;;;;;13.70;90.42;99475.41;5022769;28;20449;-77
2023/03/24 08:08:53;;;;;;;5.73;4.13;;;;;;;13.86;90.39;99482.63;5034465;28;20513;-76
2023/03/24 08:11:27;;;;;;;6.30;4.83;;;;;;;13.76;90.92;99479.81;5035371;28;20653;-76
2023/03/24 08:14:02;;;;;;;4.80;4.40;;;;;;;13.66;92.05;99475.09;5022708;28;20472;-77
2023/03/24 08:16:37;;;;;;;4.00;3.60;;;;;;;13.67;92.02;99476.72;5041630;28;20511;-77
2023/03/24 08:19:10;;;;;;;8.60;4.20;;;;;;;13.55;92.78;99473.34;5031297;28;20904;-76
2023/03/24 08:21:47;;;;;;;5.00;4.50;;;;;;;13.61;93.72;99477.75;5031875;28;20430;-76
2023/03/24 08:24:23;;;;;;;6.03;4.50;;;;;;;13.48;93.97;99481.69;5026640;28;20499;-76
2023/03/24 08:26:57;;;;;;;5.43;5.03;;;;;;;13.60;93.01;99481.56;5020056;28;20997;-77
2023/03/24 08:29:29;;;;;;;7.20;4.67;;;;;;;13.64;93.48;99476.44;5016926;28;20475;-76
2023/03/24 08:32:00;;;;;;;5.30;4.80;;;;;;;13.49;92.27;99452.63;5030481;28;20414;-75
2023/03/24 08:34:31;;;;;;;5.43;3.67;;;;;;;13.56;92.73;99472.25;5035740;28;20509;-76
2023/03/24 08:37:03;;;;;;;8.80;6.33;;;;;;;13.56;92.23;99461.38;5021414;28;20427;-76
2023/03/24 08:39:34;;;;;;;5.67;4.77;;;;;;;13.51;92.70;99469.47;5035541;28;20516;-77
2023/03/24 08:42:10;;;;;;;8.27;4.97;;;;;;;13.43;92.68;99456.38;5022126;28;20441;-77
2023/03/24 08:44:53;;;;;;;6.37;5.77;;;;;;;13.51;91.77;99465.97;5025222;28;20442;-76
2023/03/24 08:47:31;;;;;;;8.57;5.20;;;;;;;13.59;91.24;99487.25;5024040;28;20810;-77
2023/03/24 08:50:08;;;;;;;8.43;4.87;;;;;;;13.53;91.05;99450.22;5031361;28;20418;-77
2023/03/24 08:52:46;;;;;;;5.93;4.53;;;;;;;13.61;90.06;99469.59;5009856;28;20808;-76
2023/03/24 08:55:27;;;;;;;8.13;4.80;;;;;;;13.78;89.40;99469.50;5030686;28;20915;-77
2023/03/24 08:58:05;;;;;;;4.83;4.20;;;;;;;13.95;89.33;99472.91;5025167;28;20902;-77
2023/03/24 09:00:43;;;;;;;5.40;4.90;;;;;;;13.97;89.04;99468.03;5021517;28;21012;-77
2023/03/24 09:03:25;;;;;;;5.30;4.27;;;;;;;14.04;88.71;99474.06;5027724;28;20846;-76
2023/03/24 09:05:58;;;;;;;7.23;5.23;;;;;;;14.12;88.11;99473.63;5030611;28;20490;-76
2023/03/24 09:08:34;;;;;;;5.63;4.63;;;;;;;14.13;87.65;99488.88;5017582;28;20449;-75
2023/03/24 09:11:23;;;;;;;4.83;3.93;;;;;;;14.12;87.41;99486.41;5041187;28;20424;-76
2023/03/24 09:13:56;;;;;;;5.50;4.80;;;;;;;14.03;88.13;99483.34;5013855;28;20465;-77
2023/03/24 09:16:30;;;;;;;5.50;4.70;;;;;;;14.22;87.67;99490.03;5014829;28;20494;-76
2023/03/24 09:19:05;;;;;;;6.67;4.60;;;;;;;14.32;87.51;99476.50;5029366;28;20446;-76
2023/03/24 09:21:42;;;;;;;7.27;4.90;;;;;;;14.35;86.62;99491.47;5027018;28;20452;-77
2023/03/24 09:27:04;;;;;;;9.57;5.60;;;;;;;14.58;85.12;99496.56;5025500;28;20452;-76
2023/03/24 09:29:41;;;;;;;5.97;4.27;;;;;;;14.92;84.51;99496.22;5062583;28;20447;-77
2023/03/24 09:32:17;;;;;;;6.27;5.03;;;;;;;15.06;82.30;99502.84;5070742;28;20825;-77
2023/03/24 09:34:51;;;;;;;7.07;5.03;;;;;;;15.29;81.57;99501.59;5032722;28;20445;-76
2023/03/24 09:37:29;;;;;;;9.60;4.53;;;;;;;15.45;81.13;99508.72;5045770;28;20425;-78
2023/03/24 09:40:16;;;;;;;5.50;4.07;;;;;;;15.55;80.87;99511.53;5019086;28;20421;-76
2023/03/24 09:42:55;;;;;;;6.20;4.80;;;;;;;15.86;79.56;99520.59;5040125;28;20537;-77
2023/03/24 09:45:31;;;;;;;4.87;3.83;;;;;;;16.18;77.31;99514.91;5044564;28;20424;-77
2023/03/24 09:48:09;;;;;;;7.07;4.30;;;;;;;16.16;75.98;99517.09;5028286;28;20439;-77
2023/03/24 09:50:50;;;;;;;5.50;4.30;;;;;;;16.39;75.57;99524.75;5033263;28;20456;-77
2023/03/24 09:53:33;;;;;;;4.30;3.90;;;;;;;16.49;74.61;99516.56;5025656;28;20493;-76
2023/03/24 09:56:15;;;;;;;6.10;5.00;;;;;;;16.35;75.21;99529.94;5025868;28;20422;-77
2023/03/24 09:58:56;;;;;;;5.03;3.83;;;;;;;16.12;75.63;99510.56;5036711;28;20474;-76
2023/03/24 10:01:31;;;;;;;4.10;3.70;;;;;;;16.31;74.94;99526.13;5045504;28;20436;-77
2023/03/24 10:04:20;;;;;;;5.30;4.70;;;;;;;16.38;74.28;99534.84;5022645;28;20437;-78
2023/03/24 10:07:04;;;;;;;5.77;4.00;;;;;;;16.03;74.75;99529.34;5018850;28;20823;-77
2023/03/24 10:09:41;;;;;;;4.90;2.63;;;;;;;15.82;75.99;99528.53;5025419;28;20420;-77
2023/03/24 10:12:27;;;;;;;4.50;3.57;;;;;;;15.93;76.31;99512.97;5044793;28;20545;-77
2023/03/24 10:15:18;;;;;;;7.00;4.13;;;;;;;16.24;75.26;99531.03;5044430;28;20436;-76
2023/03/24 10:18:32;;;;;;;5.10;3.70;;;;;;;16.25;74.19;99531.84;5025969;28;21017;-76
2023/03/24 10:21:13;;;;;;;8.17;3.70;;;;;;;16.44;72.04;99530.22;5021472;28;20431;-76
2023/03/24 10:23:52;;;;;;;3.53;2.80;;;;;;;16.43;70.22;99528.56;5014669;28;20449;-75
2023/03/24 10:26:38;;;;;;;3.40;3.00;;;;;;;16.49;69.03;99527.47;5030807;28;20436;-76
2023/03/24 10:29:23;;;;;;;3.07;2.37;;;;;;;16.60;67.99;99526.44;5013247;28;20556;-76
2023/03/24 10:32:01;;;;;;;5.30;3.17;;;;;;;16.61;67.45;99517.13;5019525;28;20421;-77
2023/03/24 10:34:36;;;;;;;4.90;2.77;;;;;;;16.65;67.86;99520.97;5013864;28;20459;-77
2023/03/24 10:37:59;;;;;;;3.13;2.50;;;;;;;16.97;66.94;99523.34;5029083;28;20441;-76
2023/03/24 10:40:32;;;;;;;8.23;3.00;;;;;;;17.09;67.00;99531.25;5033620;28;20433;-74
2023/03/24 10:43:06;;;;;;;3.90;2.83;;;;;;;17.27;67.02;99514.25;5030874;28;20782;-76
2023/03/24 10:45:48;;;;;;;5.60;3.90;;;;;;;17.47;66.37;99518.81;5027767;28;20490;-77
2023/03/24 10:48:42;;;;;;;2.93;2.50;;;;;;;17.51;66.34;99533.56;5038955;28;20471;-76
2023/03/24 10:51:18;;;;;;;4.23;3.63;;;;;;;17.18;67.18;99521.38;5041746;28;20435;-77
2023/03/24 10:53:50;;;;;;;3.70;3.23;;;;;;;17.09;67.80;99525.78;5031720;28;20481;-77
2023/03/24 10:56:38;;;;;;;7.70;4.23;;;;;;;17.12;67.58;99525.22;5020655;28;20444;-77
2023/03/24 10:59:27;;;;;;;3.40;3.10;;;;;;;17.37;66.15;99534.16;5037639;28;20449;-79
2023/03/24 11:02:13;;;;;;;4.43;3.43;;;;;;;17.54;65.63;99527.50;5023672;28;20833;-77
2023/03/24 11:04:55;;;;;;;3.90;3.43;;;;;;;17.21;65.98;99529.00;5033309;28;20426;-77
2023/03/24 11:07:30;;;;;;;3.50;3.20;;;;;;;17.16;65.92;99535.31;5037661;28;20797;-77
2023/03/24 11:16:10;;;;;;;3.17;2.63;;;;;;;17.19;66.73;99553.06;5023933;23;20571;-70
2023/03/24 11:18:56;;;;;;;7.00;3.40;;;;;;;17.20;66.40;99546.50;4976444;28;20461;-70
2023/03/24 11:21:27;;;;;;;3.67;3.30;;;;;;;17.46;65.76;99559.00;4977589;28;20459;-69
2023/03/24 11:23:59;;;;;;;4.40;4.00;;;;;;;17.43;65.18;99539.63;4967846;28;20468;-70
2023/03/24 11:26:34;;;;;;;5.60;3.67;;;;;;;17.96;63.64;99541.53;4974579;28;20454;-71
2023/03/24 11:29:06;;;;;;;4.03;3.57;;;;;;;17.94;62.84;99527.31;4990644;28;20456;-72
2023/03/24 11:31:38;;;;;;;8.77;3.60;;;;;;;18.36;62.35;99540.44;4972214;28;20449;-68
2023/03/24 11:34:13;;;;;;;3.83;3.17;;;;;;;18.95;61.53;99539.38;4973653;28;20452;-72
2023/03/24 11:36:46;;;;;;;4.77;3.50;;;;;;;19.05;60.79;99537.38;4989701;28;20443;-72
2023/03/24 11:39:21;;;;;;;3.70;3.27;;;;;;;19.20;61.06;99539.13;4988190;28;20790;-72
2023/03/24 11:42:14;;;;;;;3.83;3.50;;;;;;;18.45;60.28;99544.19;4989852;28;20416;-74
2023/03/24 11:44:49;;;;;;;4.27;3.87;;;;;;;18.42;61.16;99542.03;4988639;28;20909;-69
2023/03/24 11:47:24;;;;;;;4.33;3.60;;;;;;;18.11;61.03;99549.66;4987152;28;20755;-72
2023/03/24 11:50:03;;;;;;;6.37;3.80;;;;;;;17.99;60.32;99545.63;4993450;28;21198;-71
2023/03/24 11:52:37;;;;;;;3.83;3.43;;;;;;;17.78;61.42;99547.66;4991703;28;20435;-72
2023/03/24 11:55:15;;;;;;;4.27;3.73;;;;;;;17.74;61.91;99554.81;4985303;28;20469;-72
2023/03/24 11:57:52;;;;;;;3.50;3.20;;;;;;;17.39;62.29;99572.16;4993321;28;20435;-73
2023/03/24 12:00:26;;;;;;;3.50;3.20;;;;;;;17.15;64.10;99579.31;4986523;28;20993;-72
2023/03/24 12:03:25;;;;;;;5.93;3.17;;;;;;;17.21;63.99;99578.22;4992543;28;20501;-73
2023/03/24 12:06:06;;;;;;;2.83;2.33;;;;;;;17.55;63.63;99571.00;4985684;28;20510;-74
2023/03/24 12:08:46;;;;;;;3.57;2.60;;;;;;;17.43;62.63;99554.06;4993738;28;20462;-73
2023/03/24 12:11:23;;;;;;;2.73;2.53;;;;;;;17.51;62.70;99545.31;4976190;28;20462;-74
2023/03/24 12:13:53;;;;;;;4.13;2.90;;;;;;;17.73;62.57;99543.03;4995188;28;20468;-74
2023/03/24 12:16:48;;;;;;;3.13;2.70;;;;;;;17.54;62.04;99550.22;4991381;28;20499;-75
2023/03/24 12:19:54;;;;;;;5.13;3.40;;;;;;;17.79;62.07;99552.88;4978271;28;21089;-69
2023/03/24 12:22:40;;;;;;;5.17;3.13;;;;;;;18.17;60.41;99566.88;4949120;29;21164;-72
2023/03/24 12:25:28;;;;;;;3.87;3.47;;;;;;;17.90;60.37;99561.03;4980165;28;20560;-74
2023/03/24 12:28:09;;;;;;;3.27;2.80;;;;;;;17.64;60.72;99576.72;4988975;28;20802;-74
2023/03/24 12:30:45;;;;;;;4.30;3.00;;;;;;;17.36;59.93;99580.91;4992048;28;20519;-72
2023/03/24 12:33:32;;;;;;;4.00;3.63;;;;;;;17.31;60.68;99586.41;4987446;28;20428;-72
2023/03/24 12:36:30;;;;;;;4.70;3.73;;;;;;;17.08;60.49;99589.72;4990229;28;20501;-73
2023/03/24 12:39:12;;;;;;;3.03;2.50;;;;;;;17.13;58.51;99587.81;4988258;28;20435;-74
2023/03/24 12:41:50;;;;;;;4.43;3.10;;;;;;;17.16;57.18;99583.69;4987324;28;20410;-76
2023/03/24 12:44:33;;;;;;;3.90;2.60;;;;;;;17.32;56.42;99586.13;4990550;28;20430;-75
2023/03/24 12:47:16;;;;;;;4.47;2.57;;;;;;;17.05;55.62;99563.75;4987503;28;20480;-74
2023/03/24 12:50:08;;;;;;;2.95;2.70;;;;;;;17.06;56.34;99567.31;5000844;28;20433;-74
2023/03/24 12:53:06;;;;;;;2.70;2.03;;;;;;;17.06;56.16;99559.13;5005493;28;20269;-74
2023/03/24 12:55:46;;;;;;;2.43;2.23;;;;;;;16.92;55.71;99554.22;5008234;28;20442;-75
2023/03/24 12:58:22;;;;;;;4.73;2.20;;;;;;;16.80;55.43;99578.28;4993126;28;20445;-76